sensor_id;sensor_type;location;lat;lon;timestamp;pressure;altitude;pressure_sealevel;temperature;humidity
60240;BME280;46102;39.012;-7.064;2023-04-28T00:00:35;97909.94;;;23.60;34.11
60240;BME280;46102;39.012;-7.064;2023-04-28T00:02:36;97914.66;;;23.66;34.24
60240;BME280;46102;39.012;-7.064;2023-04-28T00:04:36;97907.56;;;23.58;34.21
60240;BME280;46102;39.012;-7.064;2023-04-28T00:06:37;97910.34;;;23.58;34.62
60240;BME280;46102;39.012;-7.064;2023-04-28T00:08:38;97908.84;;;23.50;34.33
60240;BME280;46102;39.012;-7.064;2023-04-28T00:10:39;97915.28;;;23.47;34.60
60240;BME280;46102;39.012;-7.064;2023-04-28T00:12:39;97917.59;;;23.56;34.44
60240;BME280;46102;39.012;-7.064;2023-04-28T00:14:40;97919.22;;;23.53;34.62
60240;BME280;46102;39.012;-7.064;2023-04-28T00:16:41;97926.78;;;23.56;34.67
60240;BME280;46102;39.012;-7.064;2023-04-28T00:18:42;97922.34;;;23.59;34.69
60240;BME280;46102;39.012;-7.064;2023-04-28T00:20:42;97935.56;;;23.55;34.62
60240;BME280;46102;39.012;-7.064;2023-04-28T00:22:43;97918.38;;;23.56;34.66
60240;BME280;46102;39.012;-7.064;2023-04-28T00:24:44;97921.44;;;23.65;34.78
60240;BME280;46102;39.012;-7.064;2023-04-28T00:26:45;97915.06;;;23.65;34.58
60240;BME280;46102;39.012;-7.064;2023-04-28T00:28:46;97929.88;;;23.62;34.96
60240;BME280;46102;39.012;-7.064;2023-04-28T00:30:46;97926.34;;;23.58;35.11
60240;BME280;46102;39.012;-7.064;2023-04-28T00:32:47;97931.63;;;23.52;35.27
60240;BME280;46102;39.012;-7.064;2023-04-28T00:34:48;97928.56;;;23.39;35.43
60240;BME280;46102;39.012;-7.064;2023-04-28T00:36:52;97930.19;;;23.37;35.62
60240;BME280;46102;39.012;-7.064;2023-04-28T00:38:52;97928.56;;;23.39;35.85
60240;BME280;46102;39.012;-7.064;2023-04-28T00:40:53;97934.59;;;23.38;35.92
60240;BME280;46102;39.012;-7.064;2023-04-28T00:42:54;97932.59;;;23.38;35.88
60240;BME280;46102;39.012;-7.064;2023-04-28T00:44:54;97929.78;;;23.38;36.07
60240;BME280;46102;39.012;-7.064;2023-04-28T00:46:55;97922.63;;;23.37;36.15
60240;BME280;46102;39.012;-7.064;2023-04-28T00:48:58;97927.38;;;23.40;36.49
60240;BME280;46102;39.012;-7.064;2023-04-28T00:50:59;97930.44;;;23.49;36.61
60240;BME280;46102;39.012;-7.064;2023-04-28T00:52:59;97930.75;;;23.55;36.74
60240;BME280;46102;39.012;-7.064;2023-04-28T00:55:01;97924.00;;;23.53;36.56
60240;BME280;46102;39.012;-7.064;2023-04-28T00:57:02;97920.81;;;23.51;37.15
60240;BME280;46102;39.012;-7.064;2023-04-28T00:59:04;97930.56;;;23.39;37.23
60240;BME280;46102;39.012;-7.064;2023-04-28T01:01:06;97926.97;;;23.38;37.28
60240;BME280;46102;39.012;-7.064;2023-04-28T01:03:07;97923.50;;;23.31;37.29
60240;BME280;46102;39.012;-7.064;2023-04-28T01:05:09;97918.78;;;23.24;37.62
60240;BME280;46102;39.012;-7.064;2023-04-28T01:07:11;97914.06;;;23.14;37.79
60240;BME280;46102;39.012;-7.064;2023-04-28T01:09:12;97915.25;;;23.16;37.99
60240;BME280;46102;39.012;-7.064;2023-04-28T01:11:13;97929.28;;;23.13;38.25
60240;BME280;46102;39.012;-7.064;2023-04-28T01:13:32;97928.06;;;23.14;38.17
60240;BME280;46102;39.012;-7.064;2023-04-28T01:15:33;97927.22;;;23.17;38.29
60240;BME280;46102;39.012;-7.064;2023-04-28T01:17:34;97928.84;;;23.14;38.21
60240;BME280;46102;39.012;-7.064;2023-04-28T01:19:35;97936.84;;;23.12;38.37
60240;BME280;46102;39.012;-7.064;2023-04-28T01:21:36;97940.53;;;23.05;38.62
60240;BME280;46102;39.012;-7.064;2023-04-28T01:23:57;97922.88;;;23.12;38.53
60240;BME280;46102;39.012;-7.064;2023-04-28T01:25:58;97913.69;;;23.12;38.64
60240;BME280;46102;39.012;-7.064;2023-04-28T01:27:59;97918.88;;;23.13;38.47
60240;BME280;46102;39.012;-7.064;2023-04-28T01:30:02;97915.34;;;23.05;38.55
60240;BME280;46102;39.012;-7.064;2023-04-28T01:32:02;97914.16;;;23.06;38.56
60240;BME280;46102;39.012;-7.064;2023-04-28T01:34:03;97909.81;;;23.02;38.62
60240;BME280;46102;39.012;-7.064;2023-04-28T01:36:05;97910.13;;;23.07;38.61
60240;BME280;46102;39.012;-7.064;2023-04-28T01:38:05;97909.81;;;23.02;38.64
60240;BME280;46102;39.012;-7.064;2023-04-28T01:40:07;97907.00;;;22.98;38.80
60240;BME280;46102;39.012;-7.064;2023-04-28T01:42:07;97897.84;;;22.98;38.72
60240;BME280;46102;39.012;-7.064;2023-04-28T01:44:08;97897.50;;;22.92;38.76
60240;BME280;46102;39.012;-7.064;2023-04-28T01:46:09;97893.53;;;22.90;38.79
60240;BME280;46102;39.012;-7.064;2023-04-28T01:48:10;97885.97;;;22.86;38.94
60240;BME280;46102;39.012;-7.064;2023-04-28T01:50:11;97879.22;;;22.84;39.03
60240;BME280;46102;39.012;-7.064;2023-04-28T01:52:12;97878.84;;;22.82;38.75
60240;BME280;46102;39.012;-7.064;2023-04-28T01:54:12;97878.06;;;22.81;38.89
60240;BME280;46102;39.012;-7.064;2023-04-28T01:56:13;97884.03;;;22.83;38.90
60240;BME280;46102;39.012;-7.064;2023-04-28T01:58:14;97885.22;;;22.82;38.82
60240;BME280;46102;39.012;-7.064;2023-04-28T02:00:15;97883.63;;;22.81;38.98
60240;BME280;46102;39.012;-7.064;2023-04-28T02:02:21;97886.47;;;22.78;38.99
60240;BME280;46102;39.012;-7.064;2023-04-28T02:04:22;97884.44;;;22.78;39.19
60240;BME280;46102;39.012;-7.064;2023-04-28T02:06:23;97876.50;;;22.77;39.29
60240;BME280;46102;39.012;-7.064;2023-04-28T02:08:24;97889.66;;;22.76;39.23
60240;BME280;46102;39.012;-7.064;2023-04-28T02:10:25;97896.88;;;22.74;39.38
60240;BME280;46102;39.012;-7.064;2023-04-28T02:12:26;97898.50;;;22.71;39.29
60240;BME280;46102;39.012;-7.064;2023-04-28T02:14:28;97890.56;;;22.66;39.28
60240;BME280;46102;39.012;-7.064;2023-04-28T02:16:28;97893.81;;;22.61;39.65
60240;BME280;46102;39.012;-7.064;2023-04-28T02:18:29;97893.44;;;22.59;39.75
60240;BME280;46102;39.012;-7.064;2023-04-28T02:20:33;97897.03;;;22.56;39.96
60240;BME280;46102;39.012;-7.064;2023-04-28T02:22:34;97901.91;;;22.48;39.95
60240;BME280;46102;39.012;-7.064;2023-04-28T02:24:35;97902.38;;;22.43;40.17
60240;BME280;46102;39.012;-7.064;2023-04-28T02:26:36;97886.84;;;22.38;40.33
60240;BME280;46102;39.012;-7.064;2023-04-28T02:28:37;97883.63;;;22.40;40.13
60240;BME280;46102;39.012;-7.064;2023-04-28T02:30:39;97884.44;;;22.40;40.21
60240;BME280;46102;39.012;-7.064;2023-04-28T02:32:40;97887.63;;;22.39;39.98
60240;BME280;46102;39.012;-7.064;2023-04-28T02:34:41;97886.47;;;22.36;40.61
60240;BME280;46102;39.012;-7.064;2023-04-28T02:36:41;97880.09;;;22.32;40.62
60240;BME280;46102;39.012;-7.064;2023-04-28T02:38:42;97882.53;;;22.27;40.29
60240;BME280;46102;39.012;-7.064;2023-04-28T02:40:43;97882.97;;;22.25;40.55
60240;BME280;46102;39.012;-7.064;2023-04-28T02:42:44;97888.16;;;22.23;40.53
60240;BME280;46102;39.012;-7.064;2023-04-28T02:44:44;97883.34;;;22.23;40.61
60240;BME280;46102;39.012;-7.064;2023-04-28T02:46:45;97883.75;;;22.26;40.47
60240;BME280;46102;39.012;-7.064;2023-04-28T02:48:46;97889.34;;;22.26;40.87
60240;BME280;46102;39.012;-7.064;2023-04-28T02:50:47;97885.75;;;22.25;40.75
60240;BME280;46102;39.012;-7.064;2023-04-28T02:52:48;97877.78;;;22.23;40.95
60240;BME280;46102;39.012;-7.064;2023-04-28T02:54:49;97874.19;;;22.23;41.23
60240;BME280;46102;39.012;-7.064;2023-04-28T02:56:54;97879.75;;;22.19;41.76
60240;BME280;46102;39.012;-7.064;2023-04-28T02:58:55;97867.81;;;22.15;41.75
60240;BME280;46102;39.012;-7.064;2023-04-28T03:00:56;97864.28;;;22.11;41.91
60240;BME280;46102;39.012;-7.064;2023-04-28T03:02:57;97859.50;;;22.08;41.82
60240;BME280;46102;39.012;-7.064;2023-04-28T03:04:58;97858.34;;;22.02;42.24
60240;BME280;46102;39.012;-7.064;2023-04-28T03:07:00;97858.78;;;21.97;42.37
60240;BME280;46102;39.012;-7.064;2023-04-28T03:09:01;97863.19;;;21.94;42.44
60240;BME280;46102;39.012;-7.064;2023-04-28T03:11:03;97860.47;;;21.87;42.49
60240;BME280;46102;39.012;-7.064;2023-04-28T03:13:05;97862.88;;;21.81;42.88
60240;BME280;46102;39.012;-7.064;2023-04-28T03:15:07;97860.91;;;21.78;43.39
60240;BME280;46102;39.012;-7.064;2023-04-28T03:17:10;97863.31;;;21.76;43.47
60240;BME280;46102;39.012;-7.064;2023-04-28T03:19:11;97868.91;;;21.73;43.56
60240;BME280;46102;39.012;-7.064;2023-04-28T03:21:12;97865.78;;;21.67;43.60
60240;BME280;46102;39.012;-7.064;2023-04-28T03:23:13;97874.97;;;21.64;43.86
60240;BME280;46102;39.012;-7.064;2023-04-28T03:25:15;97872.19;;;21.57;44.25
60240;BME280;46102;39.012;-7.064;2023-04-28T03:27:22;97871.84;;;21.51;44.42
60240;BME280;46102;39.012;-7.064;2023-04-28T03:29:23;97866.66;;;21.50;44.16
60240;BME280;46102;39.012;-7.064;2023-04-28T03:31:25;97861.91;;;21.43;44.71
60240;BME280;46102;39.012;-7.064;2023-04-28T03:33:26;97867.09;;;21.41;44.40
60240;BME280;46102;39.012;-7.064;2023-04-28T03:35:27;97865.09;;;21.38;45.06
60240;BME280;46102;39.012;-7.064;2023-04-28T03:37:28;97859.16;;;21.29;45.34
60240;BME280;46102;39.012;-7.064;2023-04-28T03:39:29;97852.41;;;21.26;45.33
60240;BME280;46102;39.012;-7.064;2023-04-28T03:41:30;97861.59;;;21.16;45.39
60240;BME280;46102;39.012;-7.064;2023-04-28T03:43:53;97867.59;;;21.11;45.69
60240;BME280;46102;39.012;-7.064;2023-04-28T03:46:04;97877.97;;;21.10;45.45
60240;BME280;46102;39.012;-7.064;2023-04-28T03:48:05;97882.72;;;21.13;45.53
60240;BME280;46102;39.012;-7.064;2023-04-28T03:50:06;97876.75;;;21.11;45.94
60240;BME280;46102;39.012;-7.064;2023-04-28T03:52:08;97890.69;;;21.11;45.80
60240;BME280;46102;39.012;-7.064;2023-04-28T03:54:09;97894.69;;;21.10;45.86
60240;BME280;46102;39.012;-7.064;2023-04-28T03:56:10;97905.44;;;21.12;46.35
60240;BME280;46102;39.012;-7.064;2023-04-28T03:58:13;97932.97;;;20.99;46.76
60240;BME280;46102;39.012;-7.064;2023-04-28T04:00:13;97925.81;;;20.84;47.37
60240;BME280;46102;39.012;-7.064;2023-04-28T04:02:19;97921.44;;;20.83;47.02
60240;BME280;46102;39.012;-7.064;2023-04-28T04:04:20;97932.59;;;20.79;47.09
60240;BME280;46102;39.012;-7.064;2023-04-28T04:06:21;97928.59;;;20.80;47.23
60240;BME280;46102;39.012;-7.064;2023-04-28T04:08:22;97921.47;;;20.68;47.29
60240;BME280;46102;39.012;-7.064;2023-04-28T04:10:23;97925.84;;;20.76;47.01
60240;BME280;46102;39.012;-7.064;2023-04-28T04:12:24;97933.78;;;20.78;47.13
60240;BME280;46102;39.012;-7.064;2023-04-28T04:14:25;97934.59;;;20.86;46.72
60240;BME280;46102;39.012;-7.064;2023-04-28T04:16:26;97946.13;;;20.88;46.23
60240;BME280;46102;39.012;-7.064;2023-04-28T04:18:29;97933.00;;;20.81;46.14
60240;BME280;46102;39.012;-7.064;2023-04-28T04:20:45;97942.56;;;20.76;46.54
60240;BME280;46102;39.012;-7.064;2023-04-28T04:22:46;97932.19;;;20.73;46.48
60240;BME280;46102;39.012;-7.064;2023-04-28T04:24:48;97934.59;;;20.68;46.55
60240;BME280;46102;39.012;-7.064;2023-04-28T04:26:49;97931.84;;;20.61;46.92
60240;BME280;46102;39.012;-7.064;2023-04-28T04:29:11;97932.63;;;20.61;47.14
60240;BME280;46102;39.012;-7.064;2023-04-28T04:31:12;97921.06;;;20.66;46.67
60240;BME280;46102;39.012;-7.064;2023-04-28T04:33:13;97930.63;;;20.62;46.66
60240;BME280;46102;39.012;-7.064;2023-04-28T04:35:14;97926.66;;;20.63;46.72
60240;BME280;46102;39.012;-7.064;2023-04-28T04:37:15;97929.03;;;20.61;47.04
60240;BME280;46102;39.012;-7.064;2023-04-28T04:39:22;97932.22;;;20.66;47.00
60240;BME280;46102;39.012;-7.064;2023-04-28T04:41:24;97936.97;;;20.62;46.89
60240;BME280;46102;39.012;-7.064;2023-04-28T04:43:38;97956.09;;;20.64;46.64
60240;BME280;46102;39.012;-7.064;2023-04-28T04:45:39;97957.28;;;20.70;46.70
60240;BME280;46102;39.012;-7.064;2023-04-28T04:47:40;97955.72;;;20.58;46.69
60240;BME280;46102;39.012;-7.064;2023-04-28T04:49:41;97944.94;;;20.60;46.77
60240;BME280;46102;39.012;-7.064;2023-04-28T04:51:42;97943.75;;;20.68;46.37
60240;BME280;46102;39.012;-7.064;2023-04-28T04:53:43;97952.88;;;20.54;46.63
60240;BME280;46102;39.012;-7.064;2023-04-28T04:55:44;97950.09;;;20.47;46.79
60240;BME280;46102;39.012;-7.064;2023-04-28T04:57:45;97950.13;;;20.40;47.18
60240;BME280;46102;39.012;-7.064;2023-04-28T05:00:02;97954.09;;;20.35;46.90
60240;BME280;46102;39.012;-7.064;2023-04-28T05:02:04;97951.28;;;20.32;46.96
60240;BME280;46102;39.012;-7.064;2023-04-28T05:04:05;97958.44;;;20.36;46.80
60240;BME280;46102;39.012;-7.064;2023-04-28T05:06:06;97951.69;;;20.41;46.48
60240;BME280;46102;39.012;-7.064;2023-04-28T05:08:14;97963.63;;;20.34;46.56
60240;BME280;46102;39.012;-7.064;2023-04-28T05:10:15;97973.56;;;20.32;46.76
60240;BME280;46102;39.012;-7.064;2023-04-28T05:12:17;97964.41;;;20.35;46.56
60240;BME280;46102;39.012;-7.064;2023-04-28T05:14:17;97962.81;;;20.30;46.57
60240;BME280;46102;39.012;-7.064;2023-04-28T05:16:18;97970.38;;;20.37;46.27
60240;BME280;46102;39.012;-7.064;2023-04-28T05:18:35;97962.44;;;20.43;46.14
60240;BME280;46102;39.012;-7.064;2023-04-28T05:20:36;97959.63;;;20.46;46.29
60240;BME280;46102;39.012;-7.064;2023-04-28T05:22:37;97964.81;;;20.41;46.41
60240;BME280;46102;39.012;-7.064;2023-04-28T05:24:38;97966.03;;;20.36;46.37
60240;BME280;46102;39.012;-7.064;2023-04-28T05:26:39;97979.94;;;20.36;46.25
60240;BME280;46102;39.012;-7.064;2023-04-28T05:28:42;97976.75;;;20.41;46.39
60240;BME280;46102;39.012;-7.064;2023-04-28T05:30:43;97974.00;;;20.45;46.47
60240;BME280;46102;39.012;-7.064;2023-04-28T05:32:45;97975.97;;;20.41;46.09
60240;BME280;46102;39.012;-7.064;2023-04-28T05:34:46;97972.75;;;20.42;46.34
60240;BME280;46102;39.012;-7.064;2023-04-28T05:36:47;97978.34;;;20.42;46.48
60240;BME280;46102;39.012;-7.064;2023-04-28T05:38:49;97975.56;;;20.42;46.88
60240;BME280;46102;39.012;-7.064;2023-04-28T05:40:49;97984.31;;;20.41;46.37
60240;BME280;46102;39.012;-7.064;2023-04-28T05:42:51;97983.91;;;20.38;46.52
60240;BME280;46102;39.012;-7.064;2023-04-28T05:44:52;97984.72;;;20.32;46.87
60240;BME280;46102;39.012;-7.064;2023-04-28T05:46:52;97979.16;;;20.35;46.76
60240;BME280;46102;39.012;-7.064;2023-04-28T05:48:58;97988.69;;;20.38;47.02
60240;BME280;46102;39.012;-7.064;2023-04-28T05:51:01;97986.31;;;20.36;47.09
60240;BME280;46102;39.012;-7.064;2023-04-28T05:53:01;97990.66;;;20.37;46.99
60240;BME280;46102;39.012;-7.064;2023-04-28T05:55:04;97999.44;;;20.43;46.68
60240;BME280;46102;39.012;-7.064;2023-04-28T05:57:05;98000.22;;;20.44;47.28
60240;BME280;46102;39.012;-7.064;2023-04-28T05:59:06;98001.03;;;20.44;46.88
60240;BME280;46102;39.012;-7.064;2023-04-28T06:01:06;98001.81;;;20.41;47.32
60240;BME280;46102;39.012;-7.064;2023-04-28T06:03:07;98001.03;;;20.44;47.01
60240;BME280;46102;39.012;-7.064;2023-04-28T06:05:10;97998.25;;;20.48;47.00
60240;BME280;46102;39.012;-7.064;2023-04-28T06:07:11;97997.47;;;20.47;46.62
60240;BME280;46102;39.012;-7.064;2023-04-28T06:09:12;98009.00;;;20.53;46.79
60240;BME280;46102;39.012;-7.064;2023-04-28T06:11:13;98010.59;;;20.54;46.61
60240;BME280;46102;39.012;-7.064;2023-04-28T06:13:15;98000.69;;;20.56;46.52
60240;BME280;46102;39.012;-7.064;2023-04-28T06:15:16;98007.84;;;20.65;46.16
60240;BME280;46102;39.012;-7.064;2023-04-28T06:17:16;98023.00;;;20.67;46.13
60240;BME280;46102;39.012;-7.064;2023-04-28T06:19:17;98026.56;;;20.68;46.40
60240;BME280;46102;39.012;-7.064;2023-04-28T06:21:18;98028.13;;;20.69;46.38
60240;BME280;46102;39.012;-7.064;2023-04-28T06:23:20;98028.13;;;20.69;46.51
60240;BME280;46102;39.012;-7.064;2023-04-28T06:25:27;98035.72;;;20.72;46.70
60240;BME280;46102;39.012;-7.064;2023-04-28T06:27:28;98038.09;;;20.77;47.16
60240;BME280;46102;39.012;-7.064;2023-04-28T06:29:32;98042.09;;;20.83;47.11
60240;BME280;46102;39.012;-7.064;2023-04-28T06:31:33;98045.66;;;20.87;46.91
60240;BME280;46102;39.012;-7.064;2023-04-28T06:33:33;98047.28;;;20.92;47.41
60240;BME280;46102;39.012;-7.064;2023-04-28T06:35:34;98042.91;;;20.94;47.63
60240;BME280;46102;39.012;-7.064;2023-04-28T06:37:37;98052.06;;;20.98;47.86
60240;BME280;46102;39.012;-7.064;2023-04-28T06:39:38;98049.25;;;21.06;47.32
60240;BME280;46102;39.012;-7.064;2023-04-28T06:41:40;98048.03;;;21.14;47.47
60240;BME280;46102;39.012;-7.064;2023-04-28T06:43:42;98057.22;;;21.21;47.53
60240;BME280;46102;39.012;-7.064;2023-04-28T06:45:48;98052.03;;;21.31;47.21
60240;BME280;46102;39.012;-7.064;2023-04-28T06:47:49;98044.06;;;21.44;47.11
60240;BME280;46102;39.012;-7.064;2023-04-28T06:49:50;98052.38;;;21.58;47.28
60240;BME280;46102;39.012;-7.064;2023-04-28T06:51:51;98055.19;;;21.54;47.33
60240;BME280;46102;39.012;-7.064;2023-04-28T06:53:52;98061.19;;;21.49;47.45
60240;BME280;46102;39.012;-7.064;2023-04-28T06:55:53;98051.22;;;21.41;47.40
60240;BME280;46102;39.012;-7.064;2023-04-28T06:57:54;98056.38;;;21.39;47.64
60240;BME280;46102;39.012;-7.064;2023-04-28T06:59:55;98061.16;;;21.38;47.83
60240;BME280;46102;39.012;-7.064;2023-04-28T07:01:56;98053.22;;;21.40;47.73
60240;BME280;46102;39.012;-7.064;2023-04-28T07:03:56;98063.13;;;21.63;47.61
60240;BME280;46102;39.012;-7.064;2023-04-28T07:05:57;98055.09;;;21.87;47.13
60240;BME280;46102;39.012;-7.064;2023-04-28T07:07:58;98053.81;;;22.02;46.46
60240;BME280;46102;39.012;-7.064;2023-04-28T07:09:59;98044.13;;;22.32;45.61
60240;BME280;46102;39.012;-7.064;2023-04-28T07:12:00;98050.38;;;22.54;44.98
60240;BME280;46102;39.012;-7.064;2023-04-28T07:14:01;98049.44;;;22.75;44.36
60240;BME280;46102;39.012;-7.064;2023-04-28T07:16:02;98050.81;;;23.04;43.95
60240;BME280;46102;39.012;-7.064;2023-04-28T07:18:03;98047.47;;;23.24;43.50
60240;BME280;46102;39.012;-7.064;2023-04-28T07:20:05;98056.19;;;23.30;43.28
60240;BME280;46102;39.012;-7.064;2023-04-28T07:22:06;98051.06;;;23.21;43.22
60240;BME280;46102;39.012;-7.064;2023-04-28T07:24:07;98050.31;;;23.17;43.11
60240;BME280;46102;39.012;-7.064;2023-04-28T07:26:08;98057.41;;;23.28;42.52
60240;BME280;46102;39.012;-7.064;2023-04-28T07:28:08;98053.69;;;23.42;42.10
60240;BME280;46102;39.012;-7.064;2023-04-28T07:30:09;98062.41;;;23.48;41.55
60240;BME280;46102;39.012;-7.064;2023-04-28T07:32:10;98061.97;;;23.53;41.15
60240;BME280;46102;39.012;-7.064;2023-04-28T07:34:11;98065.56;;;23.54;41.22
60240;BME280;46102;39.012;-7.064;2023-04-28T07:36:12;98068.97;;;23.68;41.31
60240;BME280;46102;39.012;-7.064;2023-04-28T07:38:13;98070.22;;;24.02;40.38
60240;BME280;46102;39.012;-7.064;2023-04-28T07:40:13;98071.13;;;24.26;40.40
60240;BME280;46102;39.012;-7.064;2023-04-28T07:42:15;98066.59;;;24.36;39.70
60240;BME280;46102;39.012;-7.064;2023-04-28T07:44:15;98081.03;;;24.34;39.28
60240;BME280;46102;39.012;-7.064;2023-04-28T07:46:16;98077.63;;;24.19;39.71
60240;BME280;46102;39.012;-7.064;2023-04-28T07:48:17;98088.16;;;24.08;40.22
60240;BME280;46102;39.012;-7.064;2023-04-28T07:50:18;98093.88;;;24.01;40.44
60240;BME280;46102;39.012;-7.064;2023-04-28T07:52:19;98102.75;;;23.92;40.93
60240;BME280;46102;39.012;-7.064;2023-04-28T07:54:21;98111.47;;;24.01;40.70
60240;BME280;46102;39.012;-7.064;2023-04-28T07:56:22;98122.81;;;24.21;39.86
60240;BME280;46102;39.012;-7.064;2023-04-28T07:58:22;98118.56;;;24.09;39.61
60240;BME280;46102;39.012;-7.064;2023-04-28T08:00:24;98123.38;;;24.09;39.81
60240;BME280;46102;39.012;-7.064;2023-04-28T08:02:24;98127.03;;;24.37;39.53
60240;BME280;46102;39.012;-7.064;2023-04-28T08:04:26;98129.94;;;24.60;39.08
60240;BME280;46102;39.012;-7.064;2023-04-28T08:06:27;98126.59;;;24.72;38.78
60240;BME280;46102;39.012;-7.064;2023-04-28T08:08:29;98125.72;;;25.03;38.05
60240;BME280;46102;39.012;-7.064;2023-04-28T08:10:30;98127.44;;;25.24;37.62
60240;BME280;46102;39.012;-7.064;2023-04-28T08:12:30;98121.03;;;25.47;37.61
60240;BME280;46102;39.012;-7.064;2023-04-28T08:14:32;98133.25;;;25.80;36.86
60240;BME280;46102;39.012;-7.064;2023-04-28T08:16:32;98131.81;;;25.95;36.42
60240;BME280;46102;39.012;-7.064;2023-04-28T08:18:36;98132.69;;;26.32;36.26
60240;BME280;46102;39.012;-7.064;2023-04-28T08:20:37;98133.00;;;26.54;36.18
60240;BME280;46102;39.012;-7.064;2023-04-28T08:22:37;98133.69;;;26.62;35.74
60240;BME280;46102;39.012;-7.064;2023-04-28T08:24:38;98128.56;;;26.93;35.43
60240;BME280;46102;39.012;-7.064;2023-04-28T08:26:39;98131.34;;;27.30;34.77
60240;BME280;46102;39.012;-7.064;2023-04-28T08:28:40;98129.06;;;27.25;34.26
60240;BME280;46102;39.012;-7.064;2023-04-28T08:30:41;98138.50;;;26.98;34.91
60240;BME280;46102;39.012;-7.064;2023-04-28T08:32:42;98140.22;;;26.75;35.00
60240;BME280;46102;39.012;-7.064;2023-04-28T08:34:43;98137.91;;;26.70;35.18
60240;BME280;46102;39.012;-7.064;2023-04-28T08:36:44;98149.28;;;26.83;35.21
60240;BME280;46102;39.012;-7.064;2023-04-28T08:38:45;98153.59;;;26.88;34.59
60240;BME280;46102;39.012;-7.064;2023-04-28T08:40:45;98154.50;;;26.85;34.84
60240;BME280;46102;39.012;-7.064;2023-04-28T08:42:46;98154.84;;;26.87;34.97
60240;BME280;46102;39.012;-7.064;2023-04-28T08:44:48;98151.97;;;27.07;34.63
60240;BME280;46102;39.012;-7.064;2023-04-28T08:46:53;98151.22;;;27.23;34.43
60240;BME280;46102;39.012;-7.064;2023-04-28T08:48:59;98154.09;;;27.19;34.59
60240;BME280;46102;39.012;-7.064;2023-04-28T08:51:03;98153.78;;;26.97;34.75
60240;BME280;46102;39.012;-7.064;2023-04-28T08:53:06;98158.25;;;26.78;35.19
60240;BME280;46102;39.012;-7.064;2023-04-28T08:55:09;98154.16;;;26.99;34.79
60240;BME280;46102;39.012;-7.064;2023-04-28T08:57:10;98156.75;;;27.26;33.94
60240;BME280;46102;39.012;-7.064;2023-04-28T08:59:11;98161.41;;;27.49;33.71
60240;BME280;46102;39.012;-7.064;2023-04-28T09:01:13;98171.38;;;27.37;33.79
60240;BME280;46102;39.012;-7.064;2023-04-28T09:03:14;98173.03;;;27.35;33.86
60240;BME280;46102;39.012;-7.064;2023-04-28T09:05:15;98168.91;;;27.39;34.22
60240;BME280;46102;39.012;-7.064;2023-04-28T09:07:16;98175.88;;;27.68;33.72
60240;BME280;46102;39.012;-7.064;2023-04-28T09:09:24;98173.03;;;27.68;33.91
60240;BME280;46102;39.012;-7.064;2023-04-28T09:11:26;98170.75;;;27.62;33.91
60240;BME280;46102;39.012;-7.064;2023-04-28T09:13:26;98179.19;;;27.62;33.66
60240;BME280;46102;39.012;-7.064;2023-04-28T09:15:33;98170.94;;;27.55;33.78
60240;BME280;46102;39.012;-7.064;2023-04-28T09:17:48;98174.19;;;27.54;33.16
60240;BME280;46102;39.012;-7.064;2023-04-28T09:19:49;98184.75;;;27.50;33.36
60240;BME280;46102;39.012;-7.064;2023-04-28T09:21:54;98177.97;;;27.64;33.42
60240;BME280;46102;39.012;-7.064;2023-04-28T09:23:55;98182.19;;;27.55;33.14
60240;BME280;46102;39.012;-7.064;2023-04-28T09:26:04;98174.19;;;27.54;33.15
60240;BME280;46102;39.012;-7.064;2023-04-28T09:28:20;98177.63;;;27.45;32.87
60240;BME280;46102;39.012;-7.064;2023-04-28T09:30:37;98175.50;;;27.33;33.36
60240;BME280;46102;39.012;-7.064;2023-04-28T09:32:39;98189.22;;;27.31;33.66
60240;BME280;46102;39.012;-7.064;2023-04-28T09:34:50;98188.53;;;27.59;33.12
60240;BME280;46102;39.012;-7.064;2023-04-28T09:36:51;98190.19;;;28.06;32.27
60240;BME280;46102;39.012;-7.064;2023-04-28T09:38:57;98190.81;;;28.27;31.53
60240;BME280;46102;39.012;-7.064;2023-04-28T09:41:01;98186.63;;;28.48;31.54
60240;BME280;46102;39.012;-7.064;2023-04-28T09:43:04;98192.47;;;28.82;30.72
60240;BME280;46102;39.012;-7.064;2023-04-28T09:45:22;98185.97;;;29.37;30.02
60240;BME280;46102;39.012;-7.064;2023-04-28T09:47:24;98186.84;;;29.46;29.76
60240;BME280;46102;39.012;-7.064;2023-04-28T09:49:24;98186.63;;;29.54;29.76
60240;BME280;46102;39.012;-7.064;2023-04-28T09:51:25;98184.91;;;29.56;29.13
60240;BME280;46102;39.012;-7.064;2023-04-28T09:53:27;98187.53;;;29.38;29.47
60240;BME280;46102;39.012;-7.064;2023-04-28T09:55:29;98185.13;;;28.98;30.14
60240;BME280;46102;39.012;-7.064;2023-04-28T09:57:32;98193.31;;;29.21;29.65
60240;BME280;46102;39.012;-7.064;2023-04-28T09:59:34;98196.44;;;29.62;29.17
60240;BME280;46102;39.012;-7.064;2023-04-28T10:01:37;98196.91;;;29.73;28.72
60240;BME280;46102;39.012;-7.064;2023-04-28T10:03:40;98198.06;;;29.50;29.07
60240;BME280;46102;39.012;-7.064;2023-04-28T10:05:42;98198.69;;;29.67;28.85
60240;BME280;46102;39.012;-7.064;2023-04-28T10:07:43;98195.25;;;29.98;28.22
60240;BME280;46102;39.012;-7.064;2023-04-28T10:09:45;98196.72;;;30.02;27.84
60240;BME280;46102;39.012;-7.064;2023-04-28T10:11:52;98206.44;;;30.01;27.96
60240;BME280;46102;39.012;-7.064;2023-04-28T10:13:53;98208.28;;;30.30;27.41
60240;BME280;46102;39.012;-7.064;2023-04-28T10:15:54;98203.88;;;30.51;26.91
60240;BME280;46102;39.012;-7.064;2023-04-28T10:17:58;98217.97;;;30.64;26.57
60240;BME280;46102;39.012;-7.064;2023-04-28T10:19:59;98213.63;;;30.72;26.43
60240;BME280;46102;39.012;-7.064;2023-04-28T10:24:09;98209.81;;;31.19;26.01
60240;BME280;46102;39.012;-7.064;2023-04-28T10:26:12;98215.97;;;31.58;25.65
60240;BME280;46102;39.012;-7.064;2023-04-28T10:28:14;98195.25;;;31.89;24.77
60240;BME280;46102;39.012;-7.064;2023-04-28T10:30:18;98209.00;;;32.09;24.18
60240;BME280;46102;39.012;-7.064;2023-04-28T10:32:22;98195.28;;;32.17;23.93
60240;BME280;46102;39.012;-7.064;2023-04-28T10:34:24;98210.97;;;31.81;24.46
60240;BME280;46102;39.012;-7.064;2023-04-28T10:39:09;98204.06;;;31.91;23.86
60240;BME280;46102;39.012;-7.064;2023-04-28T10:41:30;98205.72;;;31.61;23.94
60240;BME280;46102;39.012;-7.064;2023-04-28T10:43:33;98203.53;;;31.65;24.22